Girvin, Texas
Current Conditions -  °F | °C
As of 3:53 PM on Tuesday 25 Nov 2014 (Local Time) from KFST Reporting Station
Clear Clear  
Wind Chill: 56°   Ceiling: Unl
Heat Index: 56°   Visibility: 10mi
Dew Point: 11°   Wind: 9mph
Humidity: 17%   Direction: 280°W
Pressure: 30.25"   Gusts: NA
Location:  31.06°N, 102.39°W
Report Text: KFST 252153Z AUTO 28008KT 10SM CLR 13/M12 A3025 RMK AO2 SLP227 T01331117
Loading
Personal Weather Stations






























Interactive Weather Map New forecast layout! Learn more

10-Day Weather Forecast

Advertisements
Track Severe Weather on mobile